Airfield :
LOGIN :

Register | Disclaimer

   EN    FR    IT 

 










Legend :    VFR   Marginal VFR   IFR   Intensive IFR   Very Intensive IFR
Visi :
Ceiling :
>= 8 km
>= 3000ft
5 to 8 km
1000 to 3000 ft
1500m to 5 km
500 to 1000 ft
800 to 1500m
200 to 500 ft
< 800m
< 200 ft
Symbols :   Thunderstorms  Fog  Heavy snow  Heavy precipitations  Wind > 20 kt
SIGMETs :     Misc.  Thunderstorms  Icing  Turbulence  Mountain Waves  Volcanic Ashes






- Airport Elevation : 364 ft
- IATA code : FRA


EDDF - Frankfurt Int.

CURRENT METAR :
  • 271750Z 19009KT 9999 -RA FEW006 BKN019 BKN028 06/06 Q1006 RERA NOSIG

EXPIRED METARs :
  • 271720Z 18010KT 9999 RA FEW005 BKN019 BKN030 06/06 Q1007 BECMG NSW
  • 271650Z 18008KT 9999 -RA FEW005 BKN020 BKN030 06/06 Q1007 NOSIG
  • 271620Z 19008KT 9999 -RA FEW005 SCT016 BKN022 06/05 Q1007 NOSIG
  • 271550Z 19011KT 9999 -RA FEW005 BKN022 BKN035 07/05 Q1008 NOSIG
  • 271520Z 20011KT 9999 -RA FEW005 BKN022 BKN030 07/05 Q1008 NOSIG

TAF TAF EDDF
Valid from the 27 at 18:00 until the 29 at 00:00 UTC


271700Z 2718/2824 18010KT 9999 BKN020
TEMPO 2718/2724 RA
PROB30
TEMPO 2800/2805 19015G25KT
BECMG 2805/2808 20015G30KT
TEMPO 2806/2818 22020G35KT 4000 SHRA BKN015CB
PROB30
TEMPO 2806/2814 22025G40KT 2000 TSGSRA BKN012CB
PROB30
TEMPO 2818/2824 3000 SHRASN BKN014CB
BECMG 2821/2824 21011KT



MET'MAP, your aeronautical weather chart ! - Copyright ORBIFLY December 2007 - Disclaimer

ORBIFLY MET'MAP TEAM :

Programming & Development : Alexandra Zaïnal
Concept & original design : Baudouin d'Aumeries
Assistance for programming : Marc-Olivier Méhu
Technical & hardware support : Manuel Goepfert

Contact : metmap@orbifly.com




SOURCES & CREDITS :

   NOAA